Time;durP1;ratioP1;P1;durP2;ratioP2;P2;SDS_P1;SDS_P2;PMS_P1;PMS_P2;Temp;Humidity;BMP_temperature;BMP_pressure;BME280_temperature;BME280_humidity;BME280_pressure;Samples;Min_cycle;Max_cycle;Signal;HPM_P1;HPM_P2
2022/10/04 00:00:24;;;;;;;;;;;9.60;99.90;;;;;;5073816;28;20357;-84
2022/10/04 00:02:50;;;;;;;;;;;9.60;99.90;;;;;;5072797;28;19904;-84
2022/10/04 00:05:17;;;;;;;;;;;9.60;99.90;;;;;;5072486;28;19905;-84
2022/10/04 00:07:48;;;;;;;;;;;9.70;99.90;;;;;;5071910;28;19915;-83
2022/10/04 00:10:13;;;;;;;;;;;9.70;99.90;;;;;;5073391;28;19905;-84
2022/10/04 00:12:45;;;;;;;;;;;9.80;99.90;;;;;;5072496;28;19911;-83
2022/10/04 00:15:19;;;;;;;;;;;9.80;99.90;;;;;;5072366;28;19966;-83
2022/10/04 00:17:58;;;;;;;;;;;9.70;99.90;;;;;;5072093;28;19904;-84
2022/10/04 00:20:43;;;;;;;;;;;9.60;99.90;;;;;;5073588;28;19911;-85
2022/10/04 00:23:24;;;;;;;;;;;9.60;99.90;;;;;;5072605;28;19911;-84
2022/10/04 00:25:53;;;;;;;;;;;9.50;99.90;;;;;;5073370;28;19911;-83
2022/10/04 00:28:19;;;;;;;;;;;9.30;99.90;;;;;;5072408;28;19904;-84
2022/10/04 00:31:04;;;;;;;;;;;9.30;99.90;;;;;;5071667;28;19904;-84
2022/10/04 00:33:41;;;;;;;;;;;9.20;99.90;;;;;;5073178;28;19908;-85
2022/10/04 00:36:22;;;;;;;;;;;9.10;99.90;;;;;;5072550;28;19952;-84
2022/10/04 00:39:00;;;;;;;;;;;9.10;99.90;;;;;;5073044;28;19911;-86
2022/10/04 00:41:27;;;;;;;;;;;8.90;99.90;;;;;;5070947;28;19953;-86
2022/10/04 00:43:53;;;;;;;;;;;8.80;99.90;;;;;;5071479;28;19912;-84
2022/10/04 00:46:23;;;;;;;;;;;8.80;99.90;;;;;;5072900;28;19930;-85
2022/10/04 00:48:51;;;;;;;;;;;8.70;99.90;;;;;;5072637;28;19904;-85
2022/10/04 00:51:29;;;;;;;;;;;8.70;99.90;;;;;;5068758;28;19916;-85
2022/10/04 00:53:57;;;;;;;;;;;8.70;99.90;;;;;;5035796;28;19991;-84
2022/10/04 00:56:25;;;;;;;;;;;8.70;99.90;;;;;;5035793;28;20369;-84
2022/10/04 00:58:56;;;;;;;;;;;8.70;99.90;;;;;;5053841;28;19988;-85
2022/10/04 01:01:23;;;;;;;;;;;8.70;99.90;;;;;;5035855;28;19954;-85
2022/10/04 01:03:51;;;;;;;;;;;8.60;99.90;;;;;;5051483;28;19908;-85
2022/10/04 01:06:18;;;;;;;;;;;8.60;99.90;;;;;;5035066;28;19908;-85
2022/10/04 01:08:48;;;;;;;;;;;8.60;99.90;;;;;;5037107;28;19911;-84
2022/10/04 01:11:22;;;;;;;;;;;8.60;99.90;;;;;;5034884;28;19906;-83
2022/10/04 01:13:55;;;;;;;;;;;8.60;99.90;;;;;;5034950;28;20262;-85
2022/10/04 01:16:23;;;;;;;;;;;8.60;99.90;;;;;;5035606;28;20336;-84
2022/10/04 01:18:49;;;;;;;;;;;8.60;99.90;;;;;;5035232;28;20366;-84
2022/10/04 01:21:17;;;;;;;;;;;8.60;99.90;;;;;;5052761;28;19958;-85
2022/10/04 01:23:44;;;;;;;;;;;8.50;99.90;;;;;;5035131;28;19908;-84
2022/10/04 01:26:28;;;;;;;;;;;8.50;99.90;;;;;;5052661;28;19905;-84
2022/10/04 01:29:12;;;;;;;;;;;8.50;99.90;;;;;;5035025;28;19912;-85
2022/10/04 01:31:48;;;;;;;;;;;8.50;99.90;;;;;;5035201;28;19912;-84
2022/10/04 01:34:15;;;;;;;;;;;8.60;99.90;;;;;;5034684;28;19962;-83
2022/10/04 01:36:41;;;;;;;;;;;8.80;99.90;;;;;;5034761;28;19916;-83
2022/10/04 01:39:07;;;;;;;;;;;9.00;99.90;;;;;;5034396;28;19913;-85
2022/10/04 01:41:39;;;;;;;;;;;9.20;99.90;;;;;;5050820;28;19911;-83
2022/10/04 01:44:06;;;;;;;;;;;9.30;99.90;;;;;;5033551;28;19904;-84
2022/10/04 01:46:35;;;;;;;;;;;9.50;99.90;;;;;;5034462;28;19904;-84
2022/10/04 01:49:03;;;;;;;;;;;9.60;99.90;;;;;;5052217;28;19905;-83
2022/10/04 01:51:30;;;;;;;;;;;9.60;99.90;;;;;;5040078;28;19912;-84
2022/10/04 01:53:59;;;;;;;;;;;9.70;99.90;;;;;;5070552;28;19912;-83
2022/10/04 01:56:26;;;;;;;;;;;9.70;99.90;;;;;;5067109;28;19932;-84
2022/10/04 01:58:57;;;;;;;;;;;9.70;99.90;;;;;;5069545;28;19915;-84
2022/10/04 02:01:27;;;;;;;;;;;9.70;99.90;;;;;;5052605;28;19912;-84
2022/10/04 02:03:58;;;;;;;;;;;9.70;99.90;;;;;;5050931;28;19905;-83
2022/10/04 02:06:24;;;;;;;;;;;9.80;99.90;;;;;;5051776;28;19983;-82
2022/10/04 02:08:56;;;;;;;;;;;9.80;99.90;;;;;;5050973;28;19943;-84
2022/10/04 02:11:23;;;;;;;;;;;9.80;99.90;;;;;;5052425;28;20357;-84
2022/10/04 02:13:50;;;;;;;;;;;9.70;99.90;;;;;;5052460;28;19959;-85
2022/10/04 02:16:17;;;;;;;;;;;9.70;99.90;;;;;;5051152;28;19905;-85
2022/10/04 02:18:43;;;;;;;;;;;9.70;99.90;;;;;;5053289;28;19905;-87
2022/10/04 02:21:10;;;;;;;;;;;9.70;99.90;;;;;;5053483;28;19905;-88
2022/10/04 02:23:36;;;;;;;;;;;9.60;99.90;;;;;;5050722;28;19931;-84
2022/10/04 02:26:05;;;;;;;;;;;9.70;99.90;;;;;;5050348;28;19966;-85
2022/10/04 02:28:31;;;;;;;;;;;9.60;99.90;;;;;;5050899;28;19908;-85
2022/10/04 02:32:56;;;;;;;;;;;9.60;99.90;;;;;;5050811;28;19996;-84
2022/10/04 02:33:48;;;;;;;;;;;9.60;99.90;;;;;;5050851;28;19913;-84
2022/10/04 02:36:14;;;;;;;;;;;9.60;99.90;;;;;;5049351;28;19912;-82
2022/10/04 02:38:46;;;;;;;;;;;9.60;99.90;;;;;;5048385;28;19905;-83
2022/10/04 02:41:30;;;;;;;;;;;9.50;99.90;;;;;;5058825;28;19961;-83
2022/10/04 02:44:08;;;;;;;;;;;9.40;99.90;;;;;;5071034;28;20261;-83
2022/10/04 02:46:49;;;;;;;;;;;9.40;99.90;;;;;;5069066;28;19908;-85
2022/10/04 02:49:30;;;;;;;;;;;9.40;99.90;;;;;;5070441;28;19915;-84
2022/10/04 02:52:02;;;;;;;;;;;9.40;99.90;;;;;;5069417;28;19969;-83
2022/10/04 02:54:34;;;;;;;;;;;9.40;99.90;;;;;;5069082;28;20439;-85
2022/10/04 02:57:00;;;;;;;;;;;9.30;99.90;;;;;;5070775;28;19954;-84
2022/10/04 02:59:26;;;;;;;;;;;9.30;99.90;;;;;;5071582;28;20015;-83
2022/10/04 03:01:54;;;;;;;;;;;9.20;99.90;;;;;;5070371;28;20292;-84
2022/10/04 03:04:22;;;;;;;;;;;9.20;99.90;;;;;;5070604;28;20384;-84
2022/10/04 03:06:48;;;;;;;;;;;9.00;99.90;;;;;;5069454;28;20369;-83
2022/10/04 03:09:14;;;;;;;;;;;9.00;99.90;;;;;;5068960;28;19908;-84
2022/10/04 03:11:40;;;;;;;;;;;8.80;99.90;;;;;;5068644;28;19946;-84
2022/10/04 03:14:09;;;;;;;;;;;8.80;99.90;;;;;;5069877;28;19910;-84
2022/10/04 03:16:36;;;;;;;;;;;8.70;99.90;;;;;;5069997;28;19927;-83
2022/10/04 03:19:02;;;;;;;;;;;8.70;99.90;;;;;;5069972;28;19908;-85
2022/10/04 03:21:29;;;;;;;;;;;8.50;99.90;;;;;;5069883;28;19927;-84
2022/10/04 03:23:55;;;;;;;;;;;8.40;99.90;;;;;;5069579;28;19927;-84
2022/10/04 03:26:39;;;;;;;;;;;8.40;99.90;;;;;;5069836;28;20368;-85
2022/10/04 03:29:09;;;;;;;;;;;8.40;99.90;;;;;;5070305;28;19904;-84
2022/10/04 03:31:38;;;;;;;;;;;8.40;99.90;;;;;;5070121;28;19916;-84
2022/10/04 03:34:03;;;;;;;;;;;8.40;99.90;;;;;;5067444;28;19905;-84
2022/10/04 03:36:29;;;;;;;;;;;8.50;99.90;;;;;;5051515;28;19911;-86
2022/10/04 03:38:55;;;;;;;;;;;8.60;99.90;;;;;;5050361;28;20000;-85
2022/10/04 03:41:22;;;;;;;;;;;8.60;99.90;;;;;;5050126;28;19905;-85
2022/10/04 03:43:49;;;;;;;;;;;8.70;99.90;;;;;;5061200;28;19977;-84
2022/10/04 03:46:15;;;;;;;;;;;8.80;99.90;;;;;;5071694;28;19904;-85
2022/10/04 03:48:51;;;;;;;;;;;8.80;99.90;;;;;;5071312;28;19965;-85
2022/10/04 03:51:24;;;;;;;;;;;8.90;99.90;;;;;;5046723;28;19960;-84
2022/10/04 03:53:52;;;;;;;;;;;8.90;99.90;;;;;;5025768;28;19913;-82
2022/10/04 03:56:19;;;;;;;;;;;9.00;99.90;;;;;;5032238;28;19960;-84
2022/10/04 03:58:45;;;;;;;;;;;9.10;99.90;;;;;;5033368;28;19931;-85
2022/10/04 04:01:10;;;;;;;;;;;9.00;99.90;;;;;;5050535;28;19996;-84
2022/10/04 04:03:59;;;;;;;;;;;9.10;99.90;;;;;;5033227;28;19999;-85
2022/10/04 04:06:26;;;;;;;;;;;9.20;99.90;;;;;;5052394;28;19962;-84
2022/10/04 04:08:54;;;;;;;;;;;9.20;99.90;;;;;;5036411;28;19905;-85
2022/10/04 04:11:26;;;;;;;;;;;9.30;99.90;;;;;;5036365;28;19958;-85
2022/10/04 04:13:59;;;;;;;;;;;9.30;99.90;;;;;;5036436;28;19904;-85
2022/10/04 04:16:27;;;;;;;;;;;9.40;99.90;;;;;;5036092;28;20340;-85
2022/10/04 04:18:54;;;;;;;;;;;9.40;99.90;;;;;;5036611;28;19904;-85
2022/10/04 04:21:22;;;;;;;;;;;9.30;99.90;;;;;;5036180;28;19912;-84
2022/10/04 04:24:02;;;;;;;;;;;9.30;99.90;;;;;;5036195;28;19909;-82
2022/10/04 04:26:27;;;;;;;;;;;9.20;99.90;;;;;;5036965;28;19908;-85
2022/10/04 04:28:53;;;;;;;;;;;9.20;99.90;;;;;;5037264;28;19950;-86
2022/10/04 04:31:20;;;;;;;;;;;9.20;99.90;;;;;;5037349;28;20388;-87
2022/10/04 04:33:49;;;;;;;;;;;9.20;99.90;;;;;;5023284;28;19917;-85
2022/10/04 04:36:15;;;;;;;;;;;9.20;99.90;;;;;;5031544;28;19921;-85
2022/10/04 04:41:27;;;;;;;;;;;9.10;99.90;;;;;;5034546;28;19972;-83
2022/10/04 04:43:52;;;;;;;;;;;9.10;99.90;;;;;;5014638;28;19909;-84
2022/10/04 04:46:19;;;;;;;;;;;9.00;99.90;;;;;;5015865;28;19912;-84
2022/10/04 04:48:47;;;;;;;;;;;9.10;99.90;;;;;;5015782;28;19963;-84
2022/10/04 04:51:23;;;;;;;;;;;9.10;99.90;;;;;;5015523;28;19967;-83
2022/10/04 04:53:49;;;;;;;;;;;9.00;99.90;;;;;;5016036;28;20404;-84
2022/10/04 04:56:20;;;;;;;;;;;9.00;99.90;;;;;;5015569;28;20011;-83
2022/10/04 04:58:47;;;;;;;;;;;9.00;99.90;;;;;;5028673;28;19912;-85
2022/10/04 05:01:31;;;;;;;;;;;9.00;99.90;;;;;;5053234;28;19927;-85
2022/10/04 05:04:08;;;;;;;;;;;9.00;99.90;;;;;;5034667;28;19904;-84
2022/10/04 05:06:35;;;;;;;;;;;9.00;99.90;;;;;;5033700;28;19909;-82
2022/10/04 05:09:02;;;;;;;;;;;9.00;99.90;;;;;;5034316;28;19908;-83
2022/10/04 05:11:31;;;;;;;;;;;9.00;99.90;;;;;;5016935;28;19987;-83
2022/10/04 05:13:59;;;;;;;;;;;9.00;99.90;;;;;;5033750;28;19948;-83
2022/10/04 05:16:40;;;;;;;;;;;9.00;99.90;;;;;;5031505;28;20008;-84
2022/10/04 05:19:29;;;;;;;;;;;9.00;99.90;;;;;;5035091;28;19905;-85
2022/10/04 05:21:56;;;;;;;;;;;9.00;99.90;;;;;;5034836;28;19911;-83
2022/10/04 05:24:30;;;;;;;;;;;9.00;99.90;;;;;;5034537;28;19958;-84
2022/10/04 05:27:04;;;;;;;;;;;9.00;99.90;;;;;;5034121;28;19909;-84
2022/10/04 05:29:34;;;;;;;;;;;9.00;99.90;;;;;;5035267;28;19967;-86
2022/10/04 05:32:25;;;;;;;;;;;9.00;99.90;;;;;;5035355;28;19908;-85
2022/10/04 05:34:51;;;;;;;;;;;9.00;99.90;;;;;;5035353;28;19917;-83
2022/10/04 05:37:29;;;;;;;;;;;9.10;99.90;;;;;;5051831;28;20255;-84
2022/10/04 05:39:58;;;;;;;;;;;9.10;99.90;;;;;;5021636;28;19905;-85
2022/10/04 05:42:27;;;;;;;;;;;9.20;99.90;;;;;;5033902;28;19975;-84
2022/10/04 05:44:54;;;;;;;;;;;9.20;99.90;;;;;;5035067;28;19912;-85
2022/10/04 05:47:22;;;;;;;;;;;9.20;99.90;;;;;;5035082;28;19905;-84
2022/10/04 05:49:50;;;;;;;;;;;9.30;99.90;;;;;;5035060;28;19904;-84
2022/10/04 05:52:26;;;;;;;;;;;9.30;99.90;;;;;;5053848;28;20368;-85
2022/10/04 05:55:11;;;;;;;;;;;9.30;99.90;;;;;;5054815;28;19923;-85
2022/10/04 05:57:39;;;;;;;;;;;9.40;99.90;;;;;;5051788;28;19909;-85
2022/10/04 06:00:11;;;;;;;;;;;9.50;99.90;;;;;;5050800;28;19963;-84
2022/10/04 06:02:53;;;;;;;;;;;9.60;99.90;;;;;;5051662;28;19943;-84
2022/10/04 06:05:31;;;;;;;;;;;9.70;99.90;;;;;;5069781;28;19923;-84
2022/10/04 06:08:07;;;;;;;;;;;9.90;99.90;;;;;;5071217;28;20398;-84
2022/10/04 06:10:32;;;;;;;;;;;10.00;99.90;;;;;;5067500;28;20379;-85
2022/10/04 06:13:07;;;;;;;;;;;10.10;99.90;;;;;;5064730;28;20399;-85
2022/10/04 06:15:41;;;;;;;;;;;10.20;99.90;;;;;;5064831;28;19966;-84
2022/10/04 06:18:26;;;;;;;;;;;10.30;99.90;;;;;;5067265;28;19913;-85
2022/10/04 06:20:56;;;;;;;;;;;10.40;99.90;;;;;;5071013;28;19979;-84
2022/10/04 06:23:24;;;;;;;;;;;10.60;99.90;;;;;;5065355;28;19912;-85
2022/10/04 06:25:49;;;;;;;;;;;10.80;99.90;;;;;;5054361;28;20393;-85
2022/10/04 06:28:19;;;;;;;;;;;11.10;99.90;;;;;;5059387;28;19920;-85
2022/10/04 06:31:03;;;;;;;;;;;11.60;99.90;;;;;;5071252;28;19926;-85
2022/10/04 06:33:41;;;;;;;;;;;12.20;99.90;;;;;;5062041;28;19913;-86
2022/10/04 06:36:21;;;;;;;;;;;13.00;99.90;;;;;;5063526;28;19974;-86
2022/10/04 06:38:55;;;;;;;;;;;13.60;99.90;;;;;;5065574;28;19995;-85
2022/10/04 06:41:27;;;;;;;;;;;13.90;99.90;;;;;;5053758;28;19967;-84
2022/10/04 06:44:07;;;;;;;;;;;14.20;99.90;;;;;;5067589;28;19908;-85
2022/10/04 06:46:48;;;;;;;;;;;14.50;99.90;;;;;;5070479;28;20042;-84
2022/10/04 06:49:14;;;;;;;;;;;14.80;99.90;;;;;;5070725;28;20583;-84
2022/10/04 06:51:58;;;;;;;;;;;14.80;99.90;;;;;;5070943;28;19916;-85
2022/10/04 06:54:42;;;;;;;;;;;14.70;99.90;;;;;;5064122;28;19964;-86
2022/10/04 06:57:30;;;;;;;;;;;14.70;99.90;;;;;;5069913;28;19915;-86
2022/10/04 06:59:55;;;;;;;;;;;14.40;99.90;;;;;;5070521;28;19904;-85
2022/10/04 07:02:25;;;;;;;;;;;14.10;99.90;;;;;;5071149;28;20044;-85
2022/10/04 07:05:02;;;;;;;;;;;13.90;99.90;;;;;;5070521;28;19904;-85
2022/10/04 07:07:36;;;;;;;;;;;13.70;99.90;;;;;;5070944;28;19958;-85
2022/10/04 07:10:16;;;;;;;;;;;13.60;99.90;;;;;;5069736;28;19904;-86
2022/10/04 07:12:44;;;;;;;;;;;13.80;99.90;;;;;;5070922;28;19904;-85
2022/10/04 07:15:22;;;;;;;;;;;14.40;99.90;;;;;;5070435;28;19917;-85
2022/10/04 07:17:49;;;;;;;;;;;15.10;99.90;;;;;;5070195;28;19913;-84
2022/10/04 07:20:33;;;;;;;;;;;15.70;99.90;;;;;;5071001;28;19904;-86
2022/10/04 07:23:01;;;;;;;;;;;16.20;99.90;;;;;;5070578;28;19910;-85
2022/10/04 07:25:30;;;;;;;;;;;16.70;99.90;;;;;;5071018;28;19911;-85
2022/10/04 07:30:52;;;;;;;;;;;17.00;99.90;;;;;;5072254;28;20026;-85
2022/10/04 07:33:21;;;;;;;;;;;16.90;99.90;;;;;;5071886;28;19911;-85
2022/10/04 07:35:49;;;;;;;;;;;16.70;99.90;;;;;;5070089;28;19966;-86
2022/10/04 07:38:28;;;;;;;;;;;16.60;99.90;;;;;;5070397;28;20012;-85
2022/10/04 07:41:09;;;;;;;;;;;16.40;99.90;;;;;;5075768;28;19958;-86
2022/10/04 07:43:45;;;;;;;;;;;16.20;99.90;;;;;;5075529;28;19975;-86
2022/10/04 07:46:21;;;;;;;;;;;16.20;99.90;;;;;;5074489;28;19909;-85
2022/10/04 07:48:49;;;;;;;;;;;16.20;99.90;;;;;;5075800;28;19904;-86
2022/10/04 07:51:23;;;;;;;;;;;16.30;99.90;;;;;;5073399;28;19916;-86
2022/10/04 07:53:53;;;;;;;;;;;16.40;99.90;;;;;;5037882;28;19920;-85
2022/10/04 07:56:25;;;;;;;;;;;16.70;99.90;;;;;;5037747;28;19916;-86
2022/10/04 07:59:00;;;;;;;;;;;16.70;99.90;;;;;;5037435;28;20660;-86
2022/10/04 08:01:29;;;;;;;;;;;16.80;99.90;;;;;;5038038;28;19904;-86
2022/10/04 08:04:10;;;;;;;;;;;17.20;99.90;;;;;;5035947;28;20003;-85
2022/10/04 08:06:38;;;;;;;;;;;17.40;99.90;;;;;;5035598;28;19960;-84
2022/10/04 08:09:12;;;;;;;;;;;17.30;99.90;;;;;;5037703;28;19952;-84
2022/10/04 08:11:44;;;;;;;;;;;17.30;99.90;;;;;;5037617;28;19919;-84
2022/10/04 08:14:21;;;;;;;;;;;17.30;99.90;;;;;;5055223;28;19912;-83
2022/10/04 08:17:05;;;;;;;;;;;17.40;99.90;;;;;;5054979;28;19911;-84
2022/10/04 08:19:51;;;;;;;;;;;17.40;99.90;;;;;;5055324;28;19905;-84
2022/10/04 08:22:22;;;;;;;;;;;17.60;99.70;;;;;;5036913;28;19905;-84
2022/10/04 08:24:57;;;;;;;;;;;17.90;99.00;;;;;;5035731;28;19908;-85
2022/10/04 08:30:54;;;;;;;;;;;18.70;99.10;;;;;;5047556;28;20332;-83
2022/10/04 08:33:30;;;;;;;;;;;19.60;95.20;;;;;;5054343;28;19905;-83
2022/10/04 08:36:03;;;;;;;;;;;19.70;94.10;;;;;;5036804;28;19919;-84
2022/10/04 08:38:48;;;;;;;;;;;19.60;93.70;;;;;;5037050;28;20661;-84
2022/10/04 08:41:31;;;;;;;;;;;19.70;93.10;;;;;;5052583;28;19908;-84
2022/10/04 08:44:00;;;;;;;;;;;19.90;92.90;;;;;;5036777;28;19908;-84
2022/10/04 08:46:31;;;;;;;;;;;20.40;91.80;;;;;;5036399;28;19923;-84
2022/10/04 08:48:57;;;;;;;;;;;20.90;90.40;;;;;;5036782;28;19904;-85
2022/10/04 08:51:42;;;;;;;;;;;21.40;86.10;;;;;;5035812;28;19916;-84
2022/10/04 08:54:26;;;;;;;;;;;21.70;81.60;;;;;;5054222;28;19977;-85
2022/10/04 08:57:11;;;;;;;;;;;22.00;78.60;;;;;;5036166;28;20369;-84
2022/10/04 08:59:48;;;;;;;;;;;22.50;75.70;;;;;;5036358;28;19909;-85
2022/10/04 09:02:26;;;;;;;;;;;22.70;70.90;;;;;;5036108;28;19904;-85
2022/10/04 09:05:16;;;;;;;;;;;23.00;67.60;;;;;;5036101;28;19950;-85
2022/10/04 09:08:03;;;;;;;;;;;23.20;66.40;;;;;;5053822;28;19908;-85
2022/10/04 09:10:46;;;;;;;;;;;23.10;64.60;;;;;;5035795;28;19912;-84
2022/10/04 09:13:30;;;;;;;;;;;23.50;63.20;;;;;;5053602;28;20008;-84
2022/10/04 09:16:16;;;;;;;;;;;23.70;62.10;;;;;;5035725;28;20258;-83
2022/10/04 09:18:45;;;;;;;;;;;24.00;60.60;;;;;;5036324;28;19905;-85
2022/10/04 09:21:34;;;;;;;;;;;23.90;56.70;;;;;;5053203;28;19904;-84
2022/10/04 09:24:08;;;;;;;;;;;23.60;54.20;;;;;;4998586;28;19939;-83
2022/10/04 09:26:44;;;;;;;;;;;22.90;53.30;;;;;;5035919;28;19905;-84
2022/10/04 09:29:13;;;;;;;;;;;23.00;58.10;;;;;;5035645;28;19908;-82
2022/10/04 09:31:57;;;;;;;;;;;23.70;59.30;;;;;;5053614;28;20085;-83
2022/10/04 09:34:40;;;;;;;;;;;23.80;59.60;;;;;;5035208;28;19905;-83
2022/10/04 09:37:09;;;;;;;;;;;24.20;58.50;;;;;;5035337;28;19915;-84
2022/10/04 09:39:54;;;;;;;;;;;24.40;57.40;;;;;;5035167;28;19912;-84
2022/10/04 09:42:31;;;;;;;;;;;24.20;54.90;;;;;;5034360;28;19950;-83
2022/10/04 09:45:08;;;;;;;;;;;24.10;56.30;;;;;;5035640;28;19944;-84
2022/10/04 09:47:37;;;;;;;;;;;24.20;54.70;;;;;;5053092;28;19905;-82
2022/10/04 09:50:03;;;;;;;;;;;24.00;55.30;;;;;;5035123;28;19912;-85
2022/10/04 09:52:40;;;;;;;;;;;23.90;53.20;;;;;;5053535;28;19927;-84
2022/10/04 09:55:13;;;;;;;;;;;24.10;53.00;;;;;;5071732;28;20407;-84
2022/10/04 09:57:42;;;;;;;;;;;24.00;52.40;;;;;;5071380;28;20383;-84
2022/10/04 10:00:10;;;;;;;;;;;24.30;53.80;;;;;;5071609;28;20356;-85
2022/10/04 10:02:55;;;;;;;;;;;24.20;50.90;;;;;;5072257;28;19974;-84
2022/10/04 10:05:23;;;;;;;;;;;23.90;51.40;;;;;;5071535;28;19904;-84
2022/10/04 10:08:04;;;;;;;;;;;23.90;49.90;;;;;;5072813;28;20361;-85
2022/10/04 10:13:39;;;;;;;;;;;24.10;49.80;;;;;;5071592;28;19938;-85
2022/10/04 10:16:11;;;;;;;;;;;24.00;51.30;;;;;;5072545;28;19920;-84
2022/10/04 10:18:39;;;;;;;;;;;23.80;52.30;;;;;;5072279;28;19983;-84
2022/10/04 10:21:05;;;;;;;;;;;23.50;52.10;;;;;;5072411;28;19915;-84
2022/10/04 10:23:36;;;;;;;;;;;23.10;54.20;;;;;;5071196;28;19904;-84
2022/10/04 10:26:21;;;;;;;;;;;22.30;53.90;;;;;;5072178;28;19936;-83
2022/10/04 10:29:13;;;;;;;;;;;21.40;55.30;;;;;;5070129;28;19960;-83
2022/10/04 10:31:57;;;;;;;;;;;20.70;58.90;;;;;;5068566;28;19908;-84
2022/10/04 10:34:41;;;;;;;;;;;20.00;57.20;;;;;;5072342;28;19904;-84
2022/10/04 10:37:17;;;;;;;;;;;19.60;59.10;;;;;;5072317;28;19908;-84
2022/10/04 10:39:46;;;;;;;;;;;19.30;58.70;;;;;;5071202;28;19908;-85
2022/10/04 10:42:43;;;;;;;;;;;19.10;58.00;;;;;;5071687;28;19947;-84
2022/10/04 10:45:09;;;;;;;;;;;18.90;59.90;;;;;;5037568;28;19916;-82
2022/10/04 10:47:36;;;;;;;;;;;18.60;59.40;;;;;;5070509;28;19908;-83
2022/10/04 10:50:20;;;;;;;;;;;18.30;61.20;;;;;;5072018;28;19904;-84
2022/10/04 10:53:04;;;;;;;;;;;18.10;63.40;;;;;;5070476;28;19924;-83
2022/10/04 10:55:33;;;;;;;;;;;17.90;65.00;;;;;;5070806;28;19924;-82
2022/10/04 10:58:05;;;;;;;;;;;17.90;67.20;;;;;;5070120;28;19915;-86
2022/10/04 11:00:52;;;;;;;;;;;18.00;68.70;;;;;;5070878;28;19904;-83
2022/10/04 11:03:38;;;;;;;;;;;18.20;71.30;;;;;;5070766;28;19958;-83
2022/10/04 11:06:15;;;;;;;;;;;18.30;69.40;;;;;;5070871;28;19905;-84
2022/10/04 11:08:59;;;;;;;;;;;18.40;70.50;;;;;;5072148;28;20387;-83
2022/10/04 11:11:45;;;;;;;;;;;18.50;70.50;;;;;;5070265;28;19930;-84
2022/10/04 11:14:49;;;;;;;;;;;18.60;69.00;;;;;;5074167;28;20425;-84
2022/10/04 11:17:25;;;;;;;;;;;18.70;64.00;;;;;;5016927;28;19963;-85
2022/10/04 11:20:10;;;;;;;;;;;18.60;63.50;;;;;;5033262;28;19984;-84
2022/10/04 11:22:54;;;;;;;;;;;18.60;63.40;;;;;;5054024;28;19905;-84
2022/10/04 11:25:24;;;;;;;;;;;18.60;64.20;;;;;;5074494;28;19958;-84
2022/10/04 11:28:25;;;;;;;;;;;18.50;62.80;;;;;;5073964;28;19904;-83
2022/10/04 11:31:09;;;;;;;;;;;18.40;64.60;;;;;;5032773;28;19905;-84
2022/10/04 11:33:43;;;;;;;;;;;18.40;66.90;;;;;;5069254;28;19905;-85
2022/10/04 11:36:31;;;;;;;;;;;18.40;67.50;;;;;;5073761;28;19927;-84
2022/10/04 11:39:05;;;;;;;;;;;18.50;67.90;;;;;;5075772;28;19912;-84
2022/10/04 11:41:39;;;;;;;;;;;18.50;68.70;;;;;;5073145;28;19908;-84
2022/10/04 11:44:15;;;;;;;;;;;18.60;68.20;;;;;;5074130;28;19952;-83
2022/10/04 11:46:40;;;;;;;;;;;18.70;67.50;;;;;;5074094;28;19914;-84
2022/10/04 11:49:18;;;;;;;;;;;18.70;67.00;;;;;;5074291;28;19978;-84
2022/10/04 11:51:59;;;;;;;;;;;18.70;68.20;;;;;;5074012;28;19912;-84
2022/10/04 11:54:30;;;;;;;;;;;18.80;68.50;;;;;;5073760;28;19911;-83
2022/10/04 11:57:09;;;;;;;;;;;18.90;69.30;;;;;;5074138;28;19904;-84
2022/10/04 11:59:58;;;;;;;;;;;19.00;68.10;;;;;;5073485;28;19911;-84
2022/10/04 12:02:43;;;;;;;;;;;19.00;68.70;;;;;;5064710;28;20066;-84
2022/10/04 12:05:27;;;;;;;;;;;19.20;67.00;;;;;;5074100;28;19915;-83
2022/10/04 12:08:03;;;;;;;;;;;19.20;67.60;;;;;;5073889;28;19955;-84
2022/10/04 12:10:41;;;;;;;;;;;19.20;69.60;;;;;;5074947;28;19908;-84
2022/10/04 12:13:25;;;;;;;;;;;19.10;69.80;;;;;;5074611;28;19904;-84
2022/10/04 12:15:59;;;;;;;;;;;19.20;69.60;;;;;;5073127;28;19920;-84
2022/10/04 12:18:35;;;;;;;;;;;19.40;70.80;;;;;;5073298;28;19904;-84
2022/10/04 12:21:20;;;;;;;;;;;19.40;69.90;;;;;;5073719;28;19905;-84
2022/10/04 12:23:57;;;;;;;;;;;19.40;69.20;;;;;;5073670;28;19904;-84
2022/10/04 12:26:42;;;;;;;;;;;19.20;70.30;;;;;;5073048;28;20436;-82
2022/10/04 12:29:24;;;;;;;;;;;19.00;70.90;;;;;;5074825;28;19911;-84
2022/10/04 12:31:53;;;;;;;;;;;18.90;72.10;;;;;;5073809;28;19904;-84
2022/10/04 12:34:31;;;;;;;;;;;19.00;72.30;;;;;;5074626;28;19912;-84
2022/10/04 12:37:12;;;;;;;;;;;19.00;72.80;;;;;;5073383;28;19939;-84
2022/10/04 12:39:41;;;;;;;;;;;19.20;72.90;;;;;;5074359;28;20374;-83
2022/10/04 12:42:20;;;;;;;;;;;19.40;72.20;;;;;;5073308;28;19935;-83
2022/10/04 12:44:46;;;;;;;;;;;19.50;72.50;;;;;;5072753;28;19909;-83
2022/10/04 12:47:36;;;;;;;;;;;19.60;72.20;;;;;;5074453;28;19911;-84
2022/10/04 12:50:21;;;;;;;;;;;19.70;70.70;;;;;;5073075;28;19909;-83
2022/10/04 12:52:54;;;;;;;;;;;19.90;69.10;;;;;;5070566;28;19930;-84
2022/10/04 12:55:40;;;;;;;;;;;20.00;66.70;;;;;;5071786;28;19916;-84
2022/10/04 12:58:26;;;;;;;;;;;20.00;66.10;;;;;;5073110;28;19904;-85
2022/10/04 13:00:57;;;;;;;;;;;20.00;65.40;;;;;;5042423;28;19911;-84
2022/10/04 13:03:46;;;;;;;;;;;19.90;65.60;;;;;;5072374;28;19988;-84
2022/10/04 13:06:22;;;;;;;;;;;19.90;66.10;;;;;;5073308;28;19908;-84
2022/10/04 13:08:56;;;;;;;;;;;19.90;66.50;;;;;;5072386;28;19908;-84
2022/10/04 13:11:40;;;;;;;;;;;20.00;67.30;;;;;;5071183;28;19919;-83
2022/10/04 13:14:09;;;;;;;;;;;20.00;68.50;;;;;;5072427;28;20399;-84
2022/10/04 13:16:45;;;;;;;;;;;20.20;67.40;;;;;;5072284;28;19974;-84
2022/10/04 13:19:11;;;;;;;;;;;20.10;66.30;;;;;;5073943;28;19911;-84
2022/10/04 13:21:39;;;;;;;;;;;19.90;66.30;;;;;;5072107;28;19904;-84
2022/10/04 13:24:24;;;;;;;;;;;19.80;65.50;;;;;;5072481;28;19905;-84
2022/10/04 13:27:03;;;;;;;;;;;19.70;67.20;;;;;;5072360;28;19969;-83
2022/10/04 13:29:40;;;;;;;;;;;19.70;67.30;;;;;;5073424;28;19909;-84
2022/10/04 13:32:11;;;;;;;;;;;19.70;65.60;;;;;;5071862;28;20428;-84
2022/10/04 13:34:52;;;;;;;;;;;19.50;65.40;;;;;;5071954;28;19920;-83
2022/10/04 13:37:34;;;;;;;;;;;19.50;66.10;;;;;;5071969;28;19912;-83
2022/10/04 13:40:20;;;;;;;;;;;19.60;66.00;;;;;;5071755;28;20264;-84
2022/10/04 13:43:11;;;;;;;;;;;19.50;64.70;;;;;;5071643;28;19908;-83
2022/10/04 13:45:36;;;;;;;;;;;19.40;64.80;;;;;;5044396;28;19909;-84
2022/10/04 13:48:02;;;;;;;;;;;19.40;61.60;;;;;;5071699;28;20285;-85
2022/10/04 13:50:45;;;;;;;;;;;19.40;61.20;;;;;;5071287;28;20001;-84
2022/10/04 13:58:57;;;;;;;;;;;19.10;59.90;;;;;;5072349;28;19931;-83
2022/10/04 14:01:23;;;;;;;;;;;18.90;60.40;;;;;;5071515;28;19904;-84
2022/10/04 14:03:57;;;;;;;;;;;18.70;61.00;;;;;;5073114;28;19986;-83
2022/10/04 14:06:32;;;;;;;;;;;18.60;61.40;;;;;;5071706;28;20371;-84
2022/10/04 14:09:04;;;;;;;;;;;18.50;62.10;;;;;;5072775;28;20797;-83
2022/10/04 14:11:35;;;;;;;;;;;18.40;63.50;;;;;;5071018;28;20367;-83
2022/10/04 14:14:20;;;;;;;;;;;18.30;64.30;;;;;;5071300;28;19904;-83
2022/10/04 14:16:45;;;;;;;;;;;18.20;63.50;;;;;;5072407;28;19918;-84
2022/10/04 14:19:21;;;;;;;;;;;18.10;62.10;;;;;;5070917;28;19986;-84
2022/10/04 14:21:58;;;;;;;;;;;18.10;63.10;;;;;;5071305;28;19904;-84
2022/10/04 14:24:34;;;;;;;;;;;17.90;63.60;;;;;;5071075;28;19930;-83
2022/10/04 14:27:05;;;;;;;;;;;17.90;64.20;;;;;;5071324;28;19908;-83
2022/10/04 14:29:34;;;;;;;;;;;17.90;64.00;;;;;;5070784;28;19913;-84
2022/10/04 14:31:59;;;;;;;;;;;17.80;64.20;;;;;;5071060;28;19905;-83
2022/10/04 14:34:31;;;;;;;;;;;17.80;64.40;;;;;;5072252;28;20272;-84
2022/10/04 14:37:09;;;;;;;;;;;17.80;64.20;;;;;;5070619;28;20388;-84
2022/10/04 14:39:35;;;;;;;;;;;17.70;64.70;;;;;;5070166;28;19909;-84
2022/10/04 14:42:21;;;;;;;;;;;17.70;65.40;;;;;;5069585;28;19927;-84
2022/10/04 14:45:06;;;;;;;;;;;17.70;66.40;;;;;;5071199;28;19904;-83
2022/10/04 14:47:50;;;;;;;;;;;17.70;66.20;;;;;;5070025;28;20388;-83
2022/10/04 14:50:17;;;;;;;;;;;17.60;66.60;;;;;;5070895;28;19904;-84
2022/10/04 14:52:50;;;;;;;;;;;17.60;67.00;;;;;;5059360;28;19968;-82
2022/10/04 14:55:16;;;;;;;;;;;17.50;67.70;;;;;;5033986;28;19920;-84
2022/10/04 14:57:45;;;;;;;;;;;17.50;66.80;;;;;;5034315;28;19905;-84
2022/10/04 15:00:20;;;;;;;;;;;17.40;67.20;;;;;;5051915;28;19919;-84
2022/10/04 15:02:57;;;;;;;;;;;17.30;67.20;;;;;;5034054;28;20066;-83
2022/10/04 15:05:30;;;;;;;;;;;17.20;67.70;;;;;;5033710;28;19955;-83
2022/10/04 15:08:15;;;;;;;;;;;17.10;68.80;;;;;;5033632;28;19959;-83
2022/10/04 15:10:52;;;;;;;;;;;17.10;69.50;;;;;;5033834;28;19995;-84
2022/10/04 15:13:27;;;;;;;;;;;17.00;70.50;;;;;;5052001;28;19909;-84
2022/10/04 15:16:11;;;;;;;;;;;16.90;70.80;;;;;;5051194;28;19916;-83
2022/10/04 15:18:46;;;;;;;;;;;16.90;71.20;;;;;;5031266;28;20408;-81
2022/10/04 15:21:17;;;;;;;;;;;16.80;72.50;;;;;;5032213;28;20562;-83